createdAt,value
2023-09-29T00:00:13.964Z,6.95
2023-09-29T00:04:27.534Z,6.57
2023-09-29T00:08:40.084Z,6.55
2023-09-29T00:12:52.970Z,6.88
2023-09-29T00:17:05.286Z,6.20
2023-09-29T00:21:17.684Z,6.13
2023-09-29T00:25:30.279Z,5.18
2023-09-29T00:29:43.450Z,6.20
2023-09-29T00:33:56.657Z,5.50
2023-09-29T00:38:09.215Z,5.65
2023-09-29T00:42:21.719Z,5.43
2023-09-29T00:46:34.200Z,6.18
2023-09-29T00:50:46.972Z,6.07
2023-09-29T00:54:59.687Z,6.25
2023-09-29T00:59:12.212Z,6.63
2023-09-29T01:03:24.926Z,5.30
2023-09-29T01:07:38.938Z,5.20
2023-09-29T01:11:51.371Z,5.28
2023-09-29T01:16:03.819Z,5.95
2023-09-29T01:20:22.902Z,5.63
2023-09-29T01:24:35.299Z,5.20
2023-09-29T01:28:51.784Z,4.82
2023-09-29T01:33:04.400Z,4.85
2023-09-29T01:37:17.468Z,4.45
2023-09-29T01:41:31.183Z,4.00
2023-09-29T01:45:43.915Z,5.15
2023-09-29T01:49:56.266Z,4.05
2023-09-29T01:54:08.611Z,3.80
2023-09-29T01:58:21.045Z,4.82
2023-09-29T02:02:33.439Z,3.60
2023-09-29T02:06:46.287Z,3.80
2023-09-29T02:10:58.760Z,3.63
2023-09-29T02:15:11.491Z,3.60
2023-09-29T02:19:23.964Z,3.35
2023-09-29T02:23:38.212Z,3.42
2023-09-29T02:27:50.584Z,3.22
2023-09-29T02:32:03.881Z,2.88
2023-09-29T02:36:16.247Z,3.10
2023-09-29T02:40:30.127Z,3.47
2023-09-29T02:44:42.589Z,3.13
2023-09-29T02:48:55.284Z,3.50
2023-09-29T02:53:09.475Z,3.00
2023-09-29T02:57:25.176Z,3.22
2023-09-29T03:01:37.601Z,3.20
2023-09-29T03:05:50.001Z,2.90
2023-09-29T03:10:02.521Z,4.03
2023-09-29T03:14:17.347Z,3.60
2023-09-29T03:18:31.702Z,3.20
2023-09-29T03:22:46.377Z,3.53
2023-09-29T03:26:58.862Z,3.10
2023-09-29T03:31:11.397Z,3.30
2023-09-29T03:35:23.752Z,2.97
2023-09-29T03:39:36.117Z,3.67
2023-09-29T03:43:48.529Z,3.40
2023-09-29T03:48:04.909Z,3.40
2023-09-29T03:52:17.349Z,3.65
2023-09-29T03:56:29.723Z,3.50
2023-09-29T04:00:42.602Z,3.50
2023-09-29T04:04:56.057Z,3.10
2023-09-29T04:09:09.690Z,3.45
2023-09-29T04:13:22.047Z,3.58
2023-09-29T04:17:35.448Z,4.00
2023-09-29T04:21:47.943Z,5.00
2023-09-29T04:26:00.528Z,4.57
2023-09-29T04:30:14.111Z,4.90
2023-09-29T04:34:26.624Z,5.30
2023-09-29T04:38:39.083Z,5.72
2023-09-29T04:42:52.939Z,5.82
2023-09-29T04:47:05.937Z,6.15
2023-09-29T04:51:18.314Z,5.78
2023-09-29T04:55:30.758Z,5.88
2023-09-29T04:59:43.559Z,6.35
2023-09-29T05:03:56.221Z,6.07
2023-09-29T05:08:09.366Z,6.28
2023-09-29T05:12:21.739Z,6.10
2023-09-29T05:16:34.173Z,6.45
2023-09-29T05:20:46.584Z,7.13
2023-09-29T05:25:00.504Z,7.00
2023-09-29T05:29:12.875Z,8.07
2023-09-29T05:33:25.592Z,7.95
2023-09-29T05:37:37.984Z,7.78
2023-09-29T05:41:51.537Z,7.53
2023-09-29T05:46:04.186Z,6.90
2023-09-29T05:50:19.486Z,7.03
2023-09-29T05:54:32.257Z,7.22
2023-09-29T05:58:44.684Z,6.60
2023-09-29T06:02:57.380Z,7.05
2023-09-29T06:07:10.700Z,6.65
2023-09-29T06:11:23.821Z,7.78
2023-09-29T06:15:36.304Z,6.10
2023-09-29T06:19:49.749Z,5.82
2023-09-29T06:24:02.239Z,4.70
2023-09-29T06:28:14.657Z,3.80
2023-09-29T06:32:27.076Z,5.32
2023-09-29T06:36:40.208Z,4.20
2023-09-29T06:40:52.871Z,3.78
2023-09-29T06:45:07.517Z,3.67
2023-09-29T06:49:20.014Z,3.92
2023-09-29T06:53:33.104Z,4.60
2023-09-29T06:57:45.607Z,4.47
2023-09-29T07:01:58.087Z,4.50
2023-09-29T07:06:10.475Z,4.53
2023-09-29T07:10:22.968Z,4.43
2023-09-29T07:14:35.332Z,4.68
2023-09-29T07:18:49.388Z,4.80
2023-09-29T07:23:04.444Z,5.25
2023-09-29T07:27:18.286Z,5.40
2023-09-29T07:31:39.712Z,5.07
2023-09-29T07:35:52.284Z,4.70
2023-09-29T07:40:05.334Z,5.07
2023-09-29T07:44:18.320Z,4.55
2023-09-29T07:48:30.955Z,4.65
2023-09-29T07:52:43.347Z,4.55
2023-09-29T07:56:55.700Z,4.63
2023-09-29T08:01:08.226Z,4.47
2023-09-29T08:05:21.422Z,4.55
2023-09-29T08:09:33.788Z,4.38
2023-09-29T08:13:48.182Z,4.82
2023-09-29T08:18:00.576Z,4.53
2023-09-29T08:22:14.585Z,3.80
2023-09-29T08:26:28.669Z,4.30
2023-09-29T08:30:44.889Z,4.70
2023-09-29T08:34:57.327Z,4.55
2023-09-29T08:39:09.956Z,4.47
2023-09-29T08:43:22.548Z,5.13
2023-09-29T08:47:37.773Z,5.25
2023-09-29T08:51:51.197Z,4.97
2023-09-29T08:56:07.048Z,4.80
2023-09-29T09:00:21.313Z,4.32
2023-09-29T09:04:34.021Z,4.22
2023-09-29T09:08:49.767Z,3.83
2023-09-29T09:13:06.989Z,4.18
2023-09-29T09:17:20.188Z,4.00
2023-09-29T09:21:36.286Z,4.10
2023-09-29T09:25:49.168Z,4.05
2023-09-29T09:30:01.909Z,4.35
2023-09-29T09:34:14.965Z,4.80
2023-09-29T09:38:33.313Z,4.82
2023-09-29T09:42:48.056Z,4.43
2023-09-29T09:47:05.492Z,4.75
2023-09-29T09:51:35.851Z,4.68
2023-09-29T09:56:02.859Z,4.65
2023-09-29T10:00:16.557Z,4.05
2023-09-29T10:04:29.827Z,3.42
2023-09-29T10:08:43.603Z,3.63
2023-09-29T10:12:56.805Z,3.53
2023-09-29T10:17:09.325Z,3.97
2023-09-29T10:21:23.223Z,3.17
2023-09-29T10:25:37.943Z,3.72
2023-09-29T10:29:54.636Z,3.55
2023-09-29T10:34:07.094Z,3.97
2023-09-29T10:38:37.759Z,3.75
2023-09-29T10:42:55.647Z,4.25
2023-09-29T10:47:09.021Z,3.50
2023-09-29T10:51:32.776Z,3.65
2023-09-29T10:55:55.985Z,4.10
2023-09-29T11:00:09.331Z,4.03
2023-09-29T11:04:22.571Z,4.05
2023-09-29T11:08:44.484Z,3.50
2023-09-29T11:12:56.922Z,3.47
2023-09-29T11:17:09.650Z,4.38
2023-09-29T11:21:36.371Z,4.00
2023-09-29T11:25:58.226Z,3.35
2023-09-29T11:30:12.284Z,3.90
2023-09-29T11:34:33.455Z,4.15
2023-09-29T11:38:47.151Z,3.90
2023-09-29T11:42:59.706Z,3.75
2023-09-29T11:47:15.040Z,3.53
2023-09-29T11:51:27.553Z,3.92
2023-09-29T11:55:39.992Z,3.50
2023-09-29T11:59:55.100Z,3.70
2023-09-29T12:04:08.225Z,4.35
2023-09-29T12:08:20.964Z,3.60
2023-09-29T12:12:34.520Z,3.50
2023-09-29T12:16:47.307Z,4.00
2023-09-29T12:21:00.843Z,4.03
2023-09-29T12:25:15.864Z,3.63
2023-09-29T12:29:31.635Z,3.85
2023-09-29T12:33:53.435Z,3.97
2023-09-29T12:38:06.971Z,4.43
2023-09-29T12:42:19.559Z,3.47
2023-09-29T12:46:33.224Z,3.85
2023-09-29T12:50:45.701Z,4.25
2023-09-29T12:55:00.482Z,4.60
2023-09-29T12:59:14.971Z,4.32
2023-09-29T13:03:28.503Z,4.10
2023-09-29T13:07:41.319Z,3.88
2023-09-29T13:11:54.404Z,4.80
2023-09-29T13:16:07.066Z,4.50
2023-09-29T13:20:20.247Z,5.47
2023-09-29T13:24:32.963Z,4.55
2023-09-29T13:28:46.725Z,5.20
2023-09-29T13:32:59.313Z,4.70
2023-09-29T13:37:13.192Z,5.32
2023-09-29T13:41:26.078Z,4.88
2023-09-29T13:45:38.523Z,5.55
2023-09-29T13:49:50.949Z,4.82
2023-09-29T13:54:04.019Z,5.00
2023-09-29T13:58:16.280Z,5.40
2023-09-29T14:02:28.758Z,5.00
2023-09-29T14:06:41.065Z,4.18
2023-09-29T14:10:53.465Z,5.70
2023-09-29T14:15:06.732Z,5.15
2023-09-29T14:19:19.420Z,6.88
2023-09-29T14:23:34.706Z,4.63
2023-09-29T14:27:48.270Z,4.07
2023-09-29T14:32:02.235Z,3.72
2023-09-29T14:36:14.672Z,4.13
2023-09-29T14:40:28.335Z,3.58
2023-09-29T14:44:40.833Z,4.47
2023-09-29T14:48:53.158Z,4.50
2023-09-29T14:53:05.660Z,4.60
2023-09-29T14:57:19.629Z,4.78
2023-09-29T15:01:32.177Z,4.30
2023-09-29T15:05:44.625Z,4.38
2023-09-29T15:09:57.663Z,5.03
2023-09-29T15:14:10.093Z,4.85
2023-09-29T15:18:22.648Z,5.57
2023-09-29T15:22:35.370Z,5.63
2023-09-29T15:26:48.077Z,6.13
2023-09-29T15:31:01.273Z,6.05
2023-09-29T15:35:15.048Z,6.60
2023-09-29T15:39:27.443Z,6.32
2023-09-29T15:43:40.064Z,6.90
2023-09-29T15:47:52.661Z,7.20
2023-09-29T15:52:05.413Z,6.75
2023-09-29T15:56:17.821Z,8.30
2023-09-29T16:00:32.955Z,7.28
2023-09-29T16:04:47.186Z,7.97
2023-09-29T16:09:01.061Z,7.72
2023-09-29T16:13:16.195Z,7.40
2023-09-29T16:17:30.270Z,6.57
2023-09-29T16:21:44.152Z,7.45
2023-09-29T16:25:59.549Z,6.97
2023-09-29T16:30:15.310Z,7.55
2023-09-29T16:34:27.868Z,9.02
2023-09-29T16:38:41.924Z,8.48
2023-09-29T16:42:54.653Z,7.63
2023-09-29T16:47:07.101Z,7.65
2023-09-29T16:51:21.522Z,7.05
2023-09-29T16:55:34.605Z,7.18
2023-09-29T16:59:47.777Z,8.18
2023-09-29T17:04:01.929Z,8.20
2023-09-29T17:08:14.697Z,8.10
2023-09-29T17:12:28.514Z,8.93
2023-09-29T17:16:45.146Z,9.13
2023-09-29T17:20:59.980Z,8.43
2023-09-29T17:25:12.587Z,10.10
2023-09-29T17:29:25.091Z,9.82
2023-09-29T17:33:38.737Z,15.52
2023-09-29T17:37:51.389Z,10.02
2023-09-29T17:42:04.178Z,9.43
2023-09-29T17:46:16.937Z,9.43
2023-09-29T17:50:29.643Z,9.75
2023-09-29T17:54:42.460Z,9.98
2023-09-29T17:58:55.242Z,9.50
2023-09-29T18:03:07.850Z,11.05
2023-09-29T18:07:23.200Z,8.15
2023-09-29T18:11:39.077Z,8.98
2023-09-29T18:15:51.679Z,11.23
2023-09-29T18:20:06.956Z,10.98
2023-09-29T18:24:19.355Z,21.00
2023-09-29T18:28:32.949Z,10.93
2023-09-29T18:32:45.384Z,9.43
2023-09-29T18:36:58.033Z,9.50
2023-09-29T18:41:17.892Z,11.27
2023-09-29T18:45:31.115Z,8.60
2023-09-29T18:49:45.749Z,10.30
2023-09-29T18:53:58.189Z,9.25
2023-09-29T18:58:10.763Z,10.45
2023-09-29T19:02:23.152Z,10.13
2023-09-29T19:06:37.510Z,9.25
2023-09-29T19:10:50.032Z,9.50
2023-09-29T19:15:02.916Z,9.48
2023-09-29T19:19:15.644Z,11.85
2023-09-29T19:23:29.064Z,7.50
2023-09-29T19:27:41.413Z,8.55
2023-09-29T19:31:54.250Z,9.27
2023-09-29T19:36:07.082Z,9.32
2023-09-29T19:40:21.394Z,8.52
2023-09-29T19:44:33.794Z,7.63
2023-09-29T19:48:46.573Z,7.10
2023-09-29T19:52:59.617Z,9.23
2023-09-29T19:57:12.647Z,7.18
2023-09-29T20:01:25.268Z,7.68
2023-09-29T20:05:44.439Z,7.22
2023-09-29T20:09:56.970Z,6.18
2023-09-29T20:14:10.317Z,7.30
2023-09-29T20:18:23.904Z,6.97
2023-09-29T20:22:36.388Z,6.35
2023-09-29T20:26:53.251Z,6.35
2023-09-29T20:31:12.557Z,7.05
2023-09-29T20:35:28.353Z,7.65
2023-09-29T20:39:43.244Z,6.03
2023-09-29T20:43:57.725Z,6.45
2023-09-29T20:48:12.127Z,6.47
2023-09-29T20:52:25.560Z,9.32
2023-09-29T20:56:42.535Z,6.18
2023-09-29T21:00:58.625Z,7.45
2023-09-29T21:05:15.032Z,6.38
2023-09-29T21:09:27.568Z,6.22
2023-09-29T21:13:40.007Z,6.07
2023-09-29T21:17:52.570Z,6.38
2023-09-29T21:22:05.312Z,7.60
2023-09-29T21:26:18.070Z,6.68
2023-09-29T21:30:31.177Z,6.63
2023-09-29T21:34:43.625Z,6.57
2023-09-29T21:38:57.237Z,6.60
2023-09-29T21:43:09.658Z,6.22
2023-09-29T21:47:24.837Z,6.32
2023-09-29T21:51:43.168Z,6.53
2023-09-29T21:55:59.702Z,5.90
2023-09-29T22:00:18.700Z,5.78
2023-09-29T22:04:32.370Z,6.07
2023-09-29T22:08:47.600Z,6.50
2023-09-29T22:13:02.390Z,5.40
2023-09-29T22:17:14.821Z,6.00
2023-09-29T22:21:30.259Z,5.20
2023-09-29T22:25:47.888Z,5.90
2023-09-29T22:30:03.211Z,6.50
2023-09-29T22:34:15.817Z,6.13
2023-09-29T22:38:28.616Z,6.65
2023-09-29T22:42:41.136Z,6.93
2023-09-29T22:46:55.070Z,6.72
2023-09-29T22:51:07.946Z,8.60
2023-09-29T22:55:21.283Z,7.82
2023-09-29T22:59:34.147Z,8.90
2023-09-29T23:03:47.005Z,10.07
2023-09-29T23:07:59.458Z,9.77
2023-09-29T23:12:12.073Z,9.77
2023-09-29T23:16:24.716Z,8.52
2023-09-29T23:20:40.485Z,8.82
2023-09-29T23:24:52.888Z,8.05
2023-09-29T23:29:06.290Z,7.70
2023-09-29T23:33:18.963Z,6.28
2023-09-29T23:37:32.813Z,7.18
2023-09-29T23:41:46.858Z,6.70
2023-09-29T23:46:06.584Z,5.32
2023-09-29T23:50:19.485Z,4.60
2023-09-29T23:54:31.876Z,5.32
2023-09-29T23:58:44.257Z,4.65
